KBTA

Blair Municipal Airport

Blair, Nebraska, USA
METAR KBTA 160055Z AUTO 18008KT 10SM CLR 04/M02 A3010 RMK AO2 T00411021
Observed Flight Rules
Dec-16 @ 00:55 UTC (21 minutes ago) Visual Flight Rules
Wind Visibility Clouds
180° at 8 knots 10 miles
  • Clear skies
Temperatures Readings
Current 4°C / 39°F
Dewpoint -2°C / 28°F
Humidity 65%
Altimeter 30.1" Hg
Pressure 1019 hPa
Elevation 396
METAR KBTA 160055Z AUTO 18008KT 10SM CLR 04/M02 A3010 RMK AO2 T00411021
Observed Flight Rules
Dec-16 @ 00:55 UTC
(21 minutes ago)
VFR
Wind Visibility
180° at 8 knots 10 miles
Clouds
  • Clear skies
Temperature Dewpoint
4°C / 39°F -2°C / 28°F
Humidity Altimeter Pressure
65% 30.1" Hg 1019 hPa